sensor_id;sensor_type;location;lat;lon;timestamp;temperature;humidity
17918;DHT22;9084;50.956;3.106;2023-10-08T00:00:45;15.30;99.90
17918;DHT22;9084;50.956;3.106;2023-10-08T00:03:19;15.30;99.90
17918;DHT22;9084;50.956;3.106;2023-10-08T00:05:46;15.30;99.90
17918;DHT22;9084;50.956;3.106;2023-10-08T00:08:12;15.30;99.90
17918;DHT22;9084;50.956;3.106;2023-10-08T00:10:41;15.20;99.90
17918;DHT22;9084;50.956;3.106;2023-10-08T00:13:11;15.20;99.90
17918;DHT22;9084;50.956;3.106;2023-10-08T00:15:41;15.20;99.90
17918;DHT22;9084;50.956;3.106;2023-10-08T00:18:22;15.20;99.90
17918;DHT22;9084;50.956;3.106;2023-10-08T00:20:53;15.20;99.90
17918;DHT22;9084;50.956;3.106;2023-10-08T00:23:42;15.20;99.90
17918;DHT22;9084;50.956;3.106;2023-10-08T00:26:09;15.10;99.90
17918;DHT22;9084;50.956;3.106;2023-10-08T00:28:34;15.10;99.90
17918;DHT22;9084;50.956;3.106;2023-10-08T00:31:04;15.10;99.90
17918;DHT22;9084;50.956;3.106;2023-10-08T00:33:39;15.10;99.90
17918;DHT22;9084;50.956;3.106;2023-10-08T00:36:05;15.20;99.90
17918;DHT22;9084;50.956;3.106;2023-10-08T00:38:48;15.10;99.90
17918;DHT22;9084;50.956;3.106;2023-10-08T00:41:22;15.10;99.90
17918;DHT22;9084;50.956;3.106;2023-10-08T00:43:48;15.10;99.90
17918;DHT22;9084;50.956;3.106;2023-10-08T00:46:16;15.10;99.90
17918;DHT22;9084;50.956;3.106;2023-10-08T00:48:46;15.10;99.90
17918;DHT22;9084;50.956;3.106;2023-10-08T00:51:13;15.10;99.90
17918;DHT22;9084;50.956;3.106;2023-10-08T00:54:10;15.10;99.90
17918;DHT22;9084;50.956;3.106;2023-10-08T00:56:42;15.10;99.90
17918;DHT22;9084;50.956;3.106;2023-10-08T00:59:26;15.00;99.90
17918;DHT22;9084;50.956;3.106;2023-10-08T01:01:52;15.00;99.90
17918;DHT22;9084;50.956;3.106;2023-10-08T01:04:33;15.00;99.90
17918;DHT22;9084;50.956;3.106;2023-10-08T01:07:05;15.00;99.90
17918;DHT22;9084;50.956;3.106;2023-10-08T01:09:41;15.00;99.90
17918;DHT22;9084;50.956;3.106;2023-10-08T01:12:22;15.00;99.90
17918;DHT22;9084;50.956;3.106;2023-10-08T01:15:05;15.00;99.90
17918;DHT22;9084;50.956;3.106;2023-10-08T01:18:06;14.90;99.90
17918;DHT22;9084;50.956;3.106;2023-10-08T01:20:40;14.90;99.90
17918;DHT22;9084;50.956;3.106;2023-10-08T01:23:10;14.90;99.90
17918;DHT22;9084;50.956;3.106;2023-10-08T01:25:40;14.90;99.90
17918;DHT22;9084;50.956;3.106;2023-10-08T01:28:07;14.90;99.90
17918;DHT22;9084;50.956;3.106;2023-10-08T01:30:56;14.90;99.90
17918;DHT22;9084;50.956;3.106;2023-10-08T01:33:29;14.80;99.90
17918;DHT22;9084;50.956;3.106;2023-10-08T01:35:56;14.80;99.90
17918;DHT22;9084;50.956;3.106;2023-10-08T01:38:29;14.80;99.90
17918;DHT22;9084;50.956;3.106;2023-10-08T01:40:58;14.80;99.90
17918;DHT22;9084;50.956;3.106;2023-10-08T01:43:28;14.80;99.90
17918;DHT22;9084;50.956;3.106;2023-10-08T01:45:57;14.80;99.90
17918;DHT22;9084;50.956;3.106;2023-10-08T01:48:23;14.80;99.90
17918;DHT22;9084;50.956;3.106;2023-10-08T01:51:05;14.80;99.90
17918;DHT22;9084;50.956;3.106;2023-10-08T01:53:53;14.80;99.90
17918;DHT22;9084;50.956;3.106;2023-10-08T01:56:23;14.90;99.90
17918;DHT22;9084;50.956;3.106;2023-10-08T01:58:49;14.80;99.90
17918;DHT22;9084;50.956;3.106;2023-10-08T02:01:20;14.80;99.90
17918;DHT22;9084;50.956;3.106;2023-10-08T02:03:45;14.80;99.90
17918;DHT22;9084;50.956;3.106;2023-10-08T02:06:11;14.80;99.90
17918;DHT22;9084;50.956;3.106;2023-10-08T02:08:38;14.70;99.90
17918;DHT22;9084;50.956;3.106;2023-10-08T02:11:06;14.70;99.90
17918;DHT22;9084;50.956;3.106;2023-10-08T02:13:36;14.70;99.90
17918;DHT22;9084;50.956;3.106;2023-10-08T02:16:04;14.70;99.90
17918;DHT22;9084;50.956;3.106;2023-10-08T02:18:30;14.80;99.90
17918;DHT22;9084;50.956;3.106;2023-10-08T02:20:56;14.80;99.90
17918;DHT22;9084;50.956;3.106;2023-10-08T02:23:24;14.80;99.90
17918;DHT22;9084;50.956;3.106;2023-10-08T02:25:50;14.80;99.90
17918;DHT22;9084;50.956;3.106;2023-10-08T02:28:15;14.80;99.90
17918;DHT22;9084;50.956;3.106;2023-10-08T02:30:42;14.80;99.90
17918;DHT22;9084;50.956;3.106;2023-10-08T02:33:09;14.80;99.90
17918;DHT22;9084;50.956;3.106;2023-10-08T02:35:42;14.80;99.90
17918;DHT22;9084;50.956;3.106;2023-10-08T02:38:16;14.80;99.90
17918;DHT22;9084;50.956;3.106;2023-10-08T02:40:42;14.80;99.90
17918;DHT22;9084;50.956;3.106;2023-10-08T02:43:16;14.80;99.90
17918;DHT22;9084;50.956;3.106;2023-10-08T02:45:45;14.80;99.90
17918;DHT22;9084;50.956;3.106;2023-10-08T02:48:17;14.80;99.90
17918;DHT22;9084;50.956;3.106;2023-10-08T02:50:43;14.80;99.90
17918;DHT22;9084;50.956;3.106;2023-10-08T02:53:11;14.80;99.90
17918;DHT22;9084;50.956;3.106;2023-10-08T02:55:46;14.80;99.90
17918;DHT22;9084;50.956;3.106;2023-10-08T02:58:15;14.80;99.90
17918;DHT22;9084;50.956;3.106;2023-10-08T03:00:45;14.70;99.90
17918;DHT22;9084;50.956;3.106;2023-10-08T03:03:15;14.70;99.90
17918;DHT22;9084;50.956;3.106;2023-10-08T03:05:54;14.70;99.90
17918;DHT22;9084;50.956;3.106;2023-10-08T03:08:22;14.70;99.90
17918;DHT22;9084;50.956;3.106;2023-10-08T03:10:51;14.70;99.90
17918;DHT22;9084;50.956;3.106;2023-10-08T03:13:30;14.70;99.90
17918;DHT22;9084;50.956;3.106;2023-10-08T03:15:56;14.70;99.90
17918;DHT22;9084;50.956;3.106;2023-10-08T03:18:28;14.60;99.90
17918;DHT22;9084;50.956;3.106;2023-10-08T03:21:04;14.60;99.90
17918;DHT22;9084;50.956;3.106;2023-10-08T03:23:31;14.60;99.90
17918;DHT22;9084;50.956;3.106;2023-10-08T03:26:02;14.50;99.90
17918;DHT22;9084;50.956;3.106;2023-10-08T03:28:43;14.50;99.90
17918;DHT22;9084;50.956;3.106;2023-10-08T03:31:12;14.50;99.90
17918;DHT22;9084;50.956;3.106;2023-10-08T03:33:43;14.50;99.90
17918;DHT22;9084;50.956;3.106;2023-10-08T03:36:14;14.40;99.90
17918;DHT22;9084;50.956;3.106;2023-10-08T03:38:47;14.40;99.90
17918;DHT22;9084;50.956;3.106;2023-10-08T03:41:25;14.30;99.90
17918;DHT22;9084;50.956;3.106;2023-10-08T03:43:53;14.30;99.90
17918;DHT22;9084;50.956;3.106;2023-10-08T03:46:33;14.30;99.90
17918;DHT22;9084;50.956;3.106;2023-10-08T03:49:05;14.30;99.90
17918;DHT22;9084;50.956;3.106;2023-10-08T03:51:42;14.30;99.90
17918;DHT22;9084;50.956;3.106;2023-10-08T03:54:07;14.30;99.90
17918;DHT22;9084;50.956;3.106;2023-10-08T03:56:46;14.30;99.90
17918;DHT22;9084;50.956;3.106;2023-10-08T03:59:16;14.30;99.90
17918;DHT22;9084;50.956;3.106;2023-10-08T04:02:00;14.30;99.90
17918;DHT22;9084;50.956;3.106;2023-10-08T04:04:35;14.30;99.90
17918;DHT22;9084;50.956;3.106;2023-10-08T04:07:23;14.30;99.90
17918;DHT22;9084;50.956;3.106;2023-10-08T04:09:52;14.30;99.90
17918;DHT22;9084;50.956;3.106;2023-10-08T04:12:40;14.20;99.90
17918;DHT22;9084;50.956;3.106;2023-10-08T04:15:17;14.20;99.90
17918;DHT22;9084;50.956;3.106;2023-10-08T04:17:45;14.20;99.90
17918;DHT22;9084;50.956;3.106;2023-10-08T04:20:18;14.10;99.90
17918;DHT22;9084;50.956;3.106;2023-10-08T04:23:05;14.10;99.90
17918;DHT22;9084;50.956;3.106;2023-10-08T04:25:32;14.10;99.90
17918;DHT22;9084;50.956;3.106;2023-10-08T04:27:59;14.20;99.90
17918;DHT22;9084;50.956;3.106;2023-10-08T04:30:33;14.20;99.90
17918;DHT22;9084;50.956;3.106;2023-10-08T04:33:03;14.10;99.90
17918;DHT22;9084;50.956;3.106;2023-10-08T04:35:34;14.10;99.90
17918;DHT22;9084;50.956;3.106;2023-10-08T04:38:03;14.10;99.90
17918;DHT22;9084;50.956;3.106;2023-10-08T04:40:36;14.10;99.90
17918;DHT22;9084;50.956;3.106;2023-10-08T04:43:10;14.20;99.90
17918;DHT22;9084;50.956;3.106;2023-10-08T04:45:38;14.10;99.90
17918;DHT22;9084;50.956;3.106;2023-10-08T04:48:05;14.10;99.90
17918;DHT22;9084;50.956;3.106;2023-10-08T04:50:39;14.10;99.90
17918;DHT22;9084;50.956;3.106;2023-10-08T04:53:12;14.10;99.90
17918;DHT22;9084;50.956;3.106;2023-10-08T04:55:41;14.10;99.90
17918;DHT22;9084;50.956;3.106;2023-10-08T04:58:07;14.10;99.90
17918;DHT22;9084;50.956;3.106;2023-10-08T05:00:45;14.10;99.90
17918;DHT22;9084;50.956;3.106;2023-10-08T05:03:20;14.10;99.90
17918;DHT22;9084;50.956;3.106;2023-10-08T05:05:49;14.10;99.90
17918;DHT22;9084;50.956;3.106;2023-10-08T05:08:34;14.10;99.90
17918;DHT22;9084;50.956;3.106;2023-10-08T05:11:20;14.20;99.90
17918;DHT22;9084;50.956;3.106;2023-10-08T05:14:19;14.20;99.90
17918;DHT22;9084;50.956;3.106;2023-10-08T05:16:58;14.20;99.90
17918;DHT22;9084;50.956;3.106;2023-10-08T05:19:50;14.20;99.90
17918;DHT22;9084;50.956;3.106;2023-10-08T05:22:44;14.20;99.90
17918;DHT22;9084;50.956;3.106;2023-10-08T05:25:09;14.10;99.90
17918;DHT22;9084;50.956;3.106;2023-10-08T05:27:42;14.10;99.90
17918;DHT22;9084;50.956;3.106;2023-10-08T05:30:18;14.10;99.90
17918;DHT22;9084;50.956;3.106;2023-10-08T05:32:57;14.10;99.90
17918;DHT22;9084;50.956;3.106;2023-10-08T05:35:30;14.10;99.90
17918;DHT22;9084;50.956;3.106;2023-10-08T05:38:18;14.00;99.90
17918;DHT22;9084;50.956;3.106;2023-10-08T05:40:57;14.10;99.90
17918;DHT22;9084;50.956;3.106;2023-10-08T05:49:07;14.00;99.90
17918;DHT22;9084;50.956;3.106;2023-10-08T05:54:16;14.00;99.90
17918;DHT22;9084;50.956;3.106;2023-10-08T05:56:56;13.90;99.90
17918;DHT22;9084;50.956;3.106;2023-10-08T05:59:37;13.90;99.90
17918;DHT22;9084;50.956;3.106;2023-10-08T06:02:29;13.90;99.90
17918;DHT22;9084;50.956;3.106;2023-10-08T06:05:01;14.00;99.90
17918;DHT22;9084;50.956;3.106;2023-10-08T06:07:47;13.90;99.90
17918;DHT22;9084;50.956;3.106;2023-10-08T06:10:28;13.90;99.90
17918;DHT22;9084;50.956;3.106;2023-10-08T06:13:02;13.90;99.90
17918;DHT22;9084;50.956;3.106;2023-10-08T06:15:50;13.90;99.90
17918;DHT22;9084;50.956;3.106;2023-10-08T06:18:20;13.90;99.90
17918;DHT22;9084;50.956;3.106;2023-10-08T06:20:54;13.90;99.90
17918;DHT22;9084;50.956;3.106;2023-10-08T06:23:24;13.90;99.90
17918;DHT22;9084;50.956;3.106;2023-10-08T06:25:53;13.90;99.90
17918;DHT22;9084;50.956;3.106;2023-10-08T06:28:23;13.90;99.90
17918;DHT22;9084;50.956;3.106;2023-10-08T06:30:52;13.90;99.90
17918;DHT22;9084;50.956;3.106;2023-10-08T06:33:27;13.90;99.90
17918;DHT22;9084;50.956;3.106;2023-10-08T06:36:02;13.90;99.90
17918;DHT22;9084;50.956;3.106;2023-10-08T06:38:29;13.90;99.90
17918;DHT22;9084;50.956;3.106;2023-10-08T06:41:01;13.90;99.90
17918;DHT22;9084;50.956;3.106;2023-10-08T06:43:58;13.90;99.90
17918;DHT22;9084;50.956;3.106;2023-10-08T06:46:39;13.90;99.90
17918;DHT22;9084;50.956;3.106;2023-10-08T06:49:07;14.00;99.90
17918;DHT22;9084;50.956;3.106;2023-10-08T06:51:37;14.00;99.90
17918;DHT22;9084;50.956;3.106;2023-10-08T06:54:03;14.10;99.90
17918;DHT22;9084;50.956;3.106;2023-10-08T06:56:35;13.90;99.90
17918;DHT22;9084;50.956;3.106;2023-10-08T06:59:03;14.20;99.90
17918;DHT22;9084;50.956;3.106;2023-10-08T07:01:31;14.30;99.90
17918;DHT22;9084;50.956;3.106;2023-10-08T07:04:06;14.30;99.90
17918;DHT22;9084;50.956;3.106;2023-10-08T07:06:43;14.50;99.90
17918;DHT22;9084;50.956;3.106;2023-10-08T07:09:13;14.50;99.90
17918;DHT22;9084;50.956;3.106;2023-10-08T07:11:52;14.60;99.90
17918;DHT22;9084;50.956;3.106;2023-10-08T07:14:27;14.60;99.90
17918;DHT22;9084;50.956;3.106;2023-10-08T07:16:57;14.70;99.90
17918;DHT22;9084;50.956;3.106;2023-10-08T07:19:30;14.70;99.90
17918;DHT22;9084;50.956;3.106;2023-10-08T07:22:03;14.80;99.90
17918;DHT22;9084;50.956;3.106;2023-10-08T07:24:43;14.90;99.90
17918;DHT22;9084;50.956;3.106;2023-10-08T07:27:11;14.90;99.90
17918;DHT22;9084;50.956;3.106;2023-10-08T07:29:39;15.00;99.90
17918;DHT22;9084;50.956;3.106;2023-10-08T07:32:05;15.10;99.90
17918;DHT22;9084;50.956;3.106;2023-10-08T07:34:39;15.10;99.90
17918;DHT22;9084;50.956;3.106;2023-10-08T07:37:06;15.20;99.90
17918;DHT22;9084;50.956;3.106;2023-10-08T07:39:32;15.30;99.90
17918;DHT22;9084;50.956;3.106;2023-10-08T07:42:05;15.40;99.90
17918;DHT22;9084;50.956;3.106;2023-10-08T07:44:34;15.40;99.90
17918;DHT22;9084;50.956;3.106;2023-10-08T07:47:06;15.50;99.90
17918;DHT22;9084;50.956;3.106;2023-10-08T07:49:39;15.60;99.90
17918;DHT22;9084;50.956;3.106;2023-10-08T07:52:05;15.60;99.90
17918;DHT22;9084;50.956;3.106;2023-10-08T07:54:36;15.70;99.90
17918;DHT22;9084;50.956;3.106;2023-10-08T07:57:02;15.80;99.90
17918;DHT22;9084;50.956;3.106;2023-10-08T07:59:41;15.80;99.90
17918;DHT22;9084;50.956;3.106;2023-10-08T08:02:14;15.90;99.90
17918;DHT22;9084;50.956;3.106;2023-10-08T08:04:43;15.90;99.90
17918;DHT22;9084;50.956;3.106;2023-10-08T08:07:11;16.00;99.90
17918;DHT22;9084;50.956;3.106;2023-10-08T08:09:43;16.00;99.90
17918;DHT22;9084;50.956;3.106;2023-10-08T08:12:16;16.10;99.90
17918;DHT22;9084;50.956;3.106;2023-10-08T08:14:42;16.10;99.90
17918;DHT22;9084;50.956;3.106;2023-10-08T08:17:10;16.20;99.90
17918;DHT22;9084;50.956;3.106;2023-10-08T08:19:43;16.20;99.90
17918;DHT22;9084;50.956;3.106;2023-10-08T08:22:19;16.30;99.90
17918;DHT22;9084;50.956;3.106;2023-10-08T08:24:53;16.40;99.90
17918;DHT22;9084;50.956;3.106;2023-10-08T08:27:22;16.50;99.90
17918;DHT22;9084;50.956;3.106;2023-10-08T08:30:00;16.60;99.90
17918;DHT22;9084;50.956;3.106;2023-10-08T08:32:54;16.70;99.90
17918;DHT22;9084;50.956;3.106;2023-10-08T08:35:21;16.70;99.90
17918;DHT22;9084;50.956;3.106;2023-10-08T08:37:47;16.80;99.90
17918;DHT22;9084;50.956;3.106;2023-10-08T08:40:18;16.90;99.90
17918;DHT22;9084;50.956;3.106;2023-10-08T08:42:48;17.00;99.90
17918;DHT22;9084;50.956;3.106;2023-10-08T08:45:19;17.00;99.90
17918;DHT22;9084;50.956;3.106;2023-10-08T08:47:46;17.00;99.90
17918;DHT22;9084;50.956;3.106;2023-10-08T08:50:12;17.10;99.90
17918;DHT22;9084;50.956;3.106;2023-10-08T08:52:39;17.10;99.90
17918;DHT22;9084;50.956;3.106;2023-10-08T08:55:08;17.10;99.90
17918;DHT22;9084;50.956;3.106;2023-10-08T08:57:51;17.10;99.90
17918;DHT22;9084;50.956;3.106;2023-10-08T09:00:19;17.20;99.90
17918;DHT22;9084;50.956;3.106;2023-10-08T09:02:50;17.20;99.90
17918;DHT22;9084;50.956;3.106;2023-10-08T09:05:16;17.30;99.90
17918;DHT22;9084;50.956;3.106;2023-10-08T09:10:20;17.40;99.90
17918;DHT22;9084;50.956;3.106;2023-10-08T09:12:51;17.50;99.90
17918;DHT22;9084;50.956;3.106;2023-10-08T09:15:17;17.50;99.90
17918;DHT22;9084;50.956;3.106;2023-10-08T09:17:44;17.50;99.90
17918;DHT22;9084;50.956;3.106;2023-10-08T09:20:14;17.60;99.90
17918;DHT22;9084;50.956;3.106;2023-10-08T09:22:39;17.60;99.90
17918;DHT22;9084;50.956;3.106;2023-10-08T09:25:10;17.50;99.90
17918;DHT22;9084;50.956;3.106;2023-10-08T09:27:39;17.60;99.90
17918;DHT22;9084;50.956;3.106;2023-10-08T09:30:14;17.60;99.90
17918;DHT22;9084;50.956;3.106;2023-10-08T09:32:44;17.60;99.90
17918;DHT22;9084;50.956;3.106;2023-10-08T09:35:17;17.60;99.90
17918;DHT22;9084;50.956;3.106;2023-10-08T09:37:44;17.60;99.90
17918;DHT22;9084;50.956;3.106;2023-10-08T09:40:11;17.70;99.90
17918;DHT22;9084;50.956;3.106;2023-10-08T09:42:42;17.80;99.90
17918;DHT22;9084;50.956;3.106;2023-10-08T09:45:09;17.80;99.90
17918;DHT22;9084;50.956;3.106;2023-10-08T09:47:38;17.90;99.90
17918;DHT22;9084;50.956;3.106;2023-10-08T09:50:07;18.00;99.90
17918;DHT22;9084;50.956;3.106;2023-10-08T09:53:14;18.10;99.90
17918;DHT22;9084;50.956;3.106;2023-10-08T09:55:59;18.20;99.90
17918;DHT22;9084;50.956;3.106;2023-10-08T09:58:26;18.20;99.90
17918;DHT22;9084;50.956;3.106;2023-10-08T10:00:57;18.20;99.90
17918;DHT22;9084;50.956;3.106;2023-10-08T10:03:27;18.30;99.90
17918;DHT22;9084;50.956;3.106;2023-10-08T10:05:54;18.30;99.90
17918;DHT22;9084;50.956;3.106;2023-10-08T10:08:25;18.30;99.90
17918;DHT22;9084;50.956;3.106;2023-10-08T10:11:01;18.40;99.90
17918;DHT22;9084;50.956;3.106;2023-10-08T10:13:52;18.40;99.90
17918;DHT22;9084;50.956;3.106;2023-10-08T10:16:25;18.50;99.90
17918;DHT22;9084;50.956;3.106;2023-10-08T10:18:55;18.50;99.90
17918;DHT22;9084;50.956;3.106;2023-10-08T10:21:28;18.60;99.90
17918;DHT22;9084;50.956;3.106;2023-10-08T10:23:58;18.70;99.90
17918;DHT22;9084;50.956;3.106;2023-10-08T10:26:33;18.70;99.90
17918;DHT22;9084;50.956;3.106;2023-10-08T10:31:48;18.70;99.90
17918;DHT22;9084;50.956;3.106;2023-10-08T10:34:17;18.80;99.90
17918;DHT22;9084;50.956;3.106;2023-10-08T10:36:46;18.90;99.90
17918;DHT22;9084;50.956;3.106;2023-10-08T10:39:17;18.90;99.90
17918;DHT22;9084;50.956;3.106;2023-10-08T10:41:47;18.90;99.90
17918;DHT22;9084;50.956;3.106;2023-10-08T10:44:14;19.00;99.90
17918;DHT22;9084;50.956;3.106;2023-10-08T10:46:45;19.10;99.90
17918;DHT22;9084;50.956;3.106;2023-10-08T10:49:20;19.30;99.90
17918;DHT22;9084;50.956;3.106;2023-10-08T10:51:57;19.30;99.90
17918;DHT22;9084;50.956;3.106;2023-10-08T10:54:26;19.40;99.90
17918;DHT22;9084;50.956;3.106;2023-10-08T10:57:01;19.40;99.90
17918;DHT22;9084;50.956;3.106;2023-10-08T10:59:43;19.50;99.90
17918;DHT22;9084;50.956;3.106;2023-10-08T11:02:19;19.50;99.90
17918;DHT22;9084;50.956;3.106;2023-10-08T11:04:56;19.60;99.90
17918;DHT22;9084;50.956;3.106;2023-10-08T11:07:35;19.60;99.90
17918;DHT22;9084;50.956;3.106;2023-10-08T11:10:09;19.70;99.90
17918;DHT22;9084;50.956;3.106;2023-10-08T11:12:42;19.80;99.90
17918;DHT22;9084;50.956;3.106;2023-10-08T11:15:13;19.90;99.90
17918;DHT22;9084;50.956;3.106;2023-10-08T11:17:44;20.00;99.90
17918;DHT22;9084;50.956;3.106;2023-10-08T11:20:28;20.10;99.90
17918;DHT22;9084;50.956;3.106;2023-10-08T11:22:55;20.20;99.90
17918;DHT22;9084;50.956;3.106;2023-10-08T11:25:40;20.20;99.90
17918;DHT22;9084;50.956;3.106;2023-10-08T11:28:11;20.30;99.90
17918;DHT22;9084;50.956;3.106;2023-10-08T11:30:37;20.30;99.90
17918;DHT22;9084;50.956;3.106;2023-10-08T11:33:10;20.40;99.90
17918;DHT22;9084;50.956;3.106;2023-10-08T11:35:55;20.40;99.90
17918;DHT22;9084;50.956;3.106;2023-10-08T11:38:21;20.40;99.90
17918;DHT22;9084;50.956;3.106;2023-10-08T11:40:49;20.40;99.90
17918;DHT22;9084;50.956;3.106;2023-10-08T11:43:15;20.40;99.90
17918;DHT22;9084;50.956;3.106;2023-10-08T11:45:44;20.50;99.90
17918;DHT22;9084;50.956;3.106;2023-10-08T11:48:16;20.60;99.90
17918;DHT22;9084;50.956;3.106;2023-10-08T11:50:56;20.60;99.90
17918;DHT22;9084;50.956;3.106;2023-10-08T11:53:23;20.60;99.90
17918;DHT22;9084;50.956;3.106;2023-10-08T11:55:50;20.60;99.90
17918;DHT22;9084;50.956;3.106;2023-10-08T11:58:24;20.50;99.90
17918;DHT22;9084;50.956;3.106;2023-10-08T12:01:07;20.50;99.90
17918;DHT22;9084;50.956;3.106;2023-10-08T12:03:36;20.50;99.90
17918;DHT22;9084;50.956;3.106;2023-10-08T12:06:04;20.50;99.90
17918;DHT22;9084;50.956;3.106;2023-10-08T12:08:32;20.50;99.90
17918;DHT22;9084;50.956;3.106;2023-10-08T12:11:06;20.50;99.90
17918;DHT22;9084;50.956;3.106;2023-10-08T12:13:38;20.60;99.90
17918;DHT22;9084;50.956;3.106;2023-10-08T12:16:03;20.60;99.90
17918;DHT22;9084;50.956;3.106;2023-10-08T12:18:38;20.70;99.90
17918;DHT22;9084;50.956;3.106;2023-10-08T12:21:10;20.70;99.90
17918;DHT22;9084;50.956;3.106;2023-10-08T12:23:39;20.70;99.90
17918;DHT22;9084;50.956;3.106;2023-10-08T12:26:11;20.70;99.90
17918;DHT22;9084;50.956;3.106;2023-10-08T12:28:44;20.80;99.90
17918;DHT22;9084;50.956;3.106;2023-10-08T12:31:18;20.90;99.90
17918;DHT22;9084;50.956;3.106;2023-10-08T12:33:48;20.90;99.90
17918;DHT22;9084;50.956;3.106;2023-10-08T12:36:18;21.00;99.90
17918;DHT22;9084;50.956;3.106;2023-10-08T12:38:49;21.00;99.90
17918;DHT22;9084;50.956;3.106;2023-10-08T12:41:17;21.00;99.90
17918;DHT22;9084;50.956;3.106;2023-10-08T12:43:46;21.10;99.90
17918;DHT22;9084;50.956;3.106;2023-10-08T12:46:18;21.10;99.90
17918;DHT22;9084;50.956;3.106;2023-10-08T12:48:44;21.10;99.90
17918;DHT22;9084;50.956;3.106;2023-10-08T12:51:14;21.20;99.90
17918;DHT22;9084;50.956;3.106;2023-10-08T12:53:40;21.20;99.90
17918;DHT22;9084;50.956;3.106;2023-10-08T12:56:08;21.20;99.90
17918;DHT22;9084;50.956;3.106;2023-10-08T12:58:42;21.30;99.10
17918;DHT22;9084;50.956;3.106;2023-10-08T13:01:14;21.30;96.80
17918;DHT22;9084;50.956;3.106;2023-10-08T13:03:45;21.30;98.30
17918;DHT22;9084;50.956;3.106;2023-10-08T13:06:16;21.40;99.40
17918;DHT22;9084;50.956;3.106;2023-10-08T13:08:53;21.40;98.50
17918;DHT22;9084;50.956;3.106;2023-10-08T13:11:20;21.40;97.20
17918;DHT22;9084;50.956;3.106;2023-10-08T13:13:53;21.40;96.90
17918;DHT22;9084;50.956;3.106;2023-10-08T13:16:22;21.50;96.80
17918;DHT22;9084;50.956;3.106;2023-10-08T13:18:53;21.60;97.30
17918;DHT22;9084;50.956;3.106;2023-10-08T13:21:22;21.60;97.10
17918;DHT22;9084;50.956;3.106;2023-10-08T13:23:52;21.60;97.00
17918;DHT22;9084;50.956;3.106;2023-10-08T13:26:18;21.70;97.90
17918;DHT22;9084;50.956;3.106;2023-10-08T13:28:50;21.70;97.90
17918;DHT22;9084;50.956;3.106;2023-10-08T13:31:16;21.80;98.10
17918;DHT22;9084;50.956;3.106;2023-10-08T13:33:43;21.80;97.40
17918;DHT22;9084;50.956;3.106;2023-10-08T13:36:13;21.80;97.40
17918;DHT22;9084;50.956;3.106;2023-10-08T13:38:40;21.90;98.00
17918;DHT22;9084;50.956;3.106;2023-10-08T13:41:16;21.80;98.60
17918;DHT22;9084;50.956;3.106;2023-10-08T13:43:47;21.80;98.50
17918;DHT22;9084;50.956;3.106;2023-10-08T13:46:17;21.80;98.40
17918;DHT22;9084;50.956;3.106;2023-10-08T13:48:45;21.90;99.30
17918;DHT22;9084;50.956;3.106;2023-10-08T13:51:13;21.80;99.60
17918;DHT22;9084;50.956;3.106;2023-10-08T13:53:41;21.80;99.90
17918;DHT22;9084;50.956;3.106;2023-10-08T13:56:11;21.80;99.90
17918;DHT22;9084;50.956;3.106;2023-10-08T13:58:38;21.80;99.90
17918;DHT22;9084;50.956;3.106;2023-10-08T14:01:12;21.80;99.50
17918;DHT22;9084;50.956;3.106;2023-10-08T14:03:50;21.80;99.70
17918;DHT22;9084;50.956;3.106;2023-10-08T14:06:21;21.80;99.90
17918;DHT22;9084;50.956;3.106;2023-10-08T14:08:49;21.90;99.00
17918;DHT22;9084;50.956;3.106;2023-10-08T14:11:22;21.90;99.30
17918;DHT22;9084;50.956;3.106;2023-10-08T14:13:56;21.80;99.20
17918;DHT22;9084;50.956;3.106;2023-10-08T14:16:22;21.80;99.80
17918;DHT22;9084;50.956;3.106;2023-10-08T14:18:54;21.90;99.70
17918;DHT22;9084;50.956;3.106;2023-10-08T14:21:25;21.80;99.20
17918;DHT22;9084;50.956;3.106;2023-10-08T14:23:58;21.80;99.40
17918;DHT22;9084;50.956;3.106;2023-10-08T14:26:31;21.90;99.40
17918;DHT22;9084;50.956;3.106;2023-10-08T14:29:05;21.90;98.40
17918;DHT22;9084;50.956;3.106;2023-10-08T14:31:36;22.00;97.90
17918;DHT22;9084;50.956;3.106;2023-10-08T14:34:05;22.10;97.80
17918;DHT22;9084;50.956;3.106;2023-10-08T14:36:34;22.10;97.20
17918;DHT22;9084;50.956;3.106;2023-10-08T14:39:21;22.30;97.40
17918;DHT22;9084;50.956;3.106;2023-10-08T14:42:05;22.30;97.20
17918;DHT22;9084;50.956;3.106;2023-10-08T14:44:49;22.40;97.00
17918;DHT22;9084;50.956;3.106;2023-10-08T14:47:16;22.40;97.00
17918;DHT22;9084;50.956;3.106;2023-10-08T14:49:42;22.40;97.10
17918;DHT22;9084;50.956;3.106;2023-10-08T14:52:11;22.40;97.10
17918;DHT22;9084;50.956;3.106;2023-10-08T14:54:39;22.30;97.40
17918;DHT22;9084;50.956;3.106;2023-10-08T14:57:07;22.30;97.90
17918;DHT22;9084;50.956;3.106;2023-10-08T14:59:35;22.30;97.80
17918;DHT22;9084;50.956;3.106;2023-10-08T15:02:01;22.30;98.00
17918;DHT22;9084;50.956;3.106;2023-10-08T15:04:27;22.30;98.00
17918;DHT22;9084;50.956;3.106;2023-10-08T15:06:57;22.30;97.90
17918;DHT22;9084;50.956;3.106;2023-10-08T15:09:26;22.40;98.20
17918;DHT22;9084;50.956;3.106;2023-10-08T15:11:52;22.30;98.20
17918;DHT22;9084;50.956;3.106;2023-10-08T15:14:21;22.30;98.30
17918;DHT22;9084;50.956;3.106;2023-10-08T15:16:49;22.30;98.80
17918;DHT22;9084;50.956;3.106;2023-10-08T15:19:19;22.30;99.30
17918;DHT22;9084;50.956;3.106;2023-10-08T15:21:50;22.20;99.70
17918;DHT22;9084;50.956;3.106;2023-10-08T15:24:22;22.20;99.90
17918;DHT22;9084;50.956;3.106;2023-10-08T15:26:51;22.20;99.90
17918;DHT22;9084;50.956;3.106;2023-10-08T15:29:20;22.20;99.70
17918;DHT22;9084;50.956;3.106;2023-10-08T15:31:48;22.30;99.80
17918;DHT22;9084;50.956;3.106;2023-10-08T15:34:17;22.30;99.90
17918;DHT22;9084;50.956;3.106;2023-10-08T15:36:43;22.20;99.90
17918;DHT22;9084;50.956;3.106;2023-10-08T15:39:08;22.20;99.90
17918;DHT22;9084;50.956;3.106;2023-10-08T15:41:51;22.10;99.90
17918;DHT22;9084;50.956;3.106;2023-10-08T15:44:17;22.10;99.90
17918;DHT22;9084;50.956;3.106;2023-10-08T15:46:47;22.10;99.90
17918;DHT22;9084;50.956;3.106;2023-10-08T15:49:13;22.00;99.90
17918;DHT22;9084;50.956;3.106;2023-10-08T15:51:39;22.00;99.90
17918;DHT22;9084;50.956;3.106;2023-10-08T15:54:05;21.90;99.90
17918;DHT22;9084;50.956;3.106;2023-10-08T15:56:32;22.00;99.90
17918;DHT22;9084;50.956;3.106;2023-10-08T15:58:57;22.00;99.90
17918;DHT22;9084;50.956;3.106;2023-10-08T16:01:25;21.90;99.90
17918;DHT22;9084;50.956;3.106;2023-10-08T16:03:56;22.00;99.90
17918;DHT22;9084;50.956;3.106;2023-10-08T16:06:24;21.90;99.90
17918;DHT22;9084;50.956;3.106;2023-10-08T16:08:50;22.00;99.90
17918;DHT22;9084;50.956;3.106;2023-10-08T16:11:16;21.90;99.90
17918;DHT22;9084;50.956;3.106;2023-10-08T16:13:44;21.90;99.90
17918;DHT22;9084;50.956;3.106;2023-10-08T16:16:10;21.90;99.90
17918;DHT22;9084;50.956;3.106;2023-10-08T16:18:36;21.90;99.90
17918;DHT22;9084;50.956;3.106;2023-10-08T16:21:04;21.80;99.90
17918;DHT22;9084;50.956;3.106;2023-10-08T16:23:31;21.80;99.90
17918;DHT22;9084;50.956;3.106;2023-10-08T16:26:03;21.80;99.90
17918;DHT22;9084;50.956;3.106;2023-10-08T16:28:31;21.70;99.90